sensor_id;sensor_type;location;lat;lon;timestamp;temperature;humidity
7814;DHT22;3952;48.364;16.022;2024-01-25T00:00:19;9.70;99.90
7814;DHT22;3952;48.364;16.022;2024-01-25T00:02:47;9.70;99.90
7814;DHT22;3952;48.364;16.022;2024-01-25T00:05:14;9.60;99.90
7814;DHT22;3952;48.364;16.022;2024-01-25T00:07:48;10.50;99.90
7814;DHT22;3952;48.364;16.022;2024-01-25T00:10:16;9.70;99.90
7814;DHT22;3952;48.364;16.022;2024-01-25T00:12:45;9.70;99.90
7814;DHT22;3952;48.364;16.022;2024-01-25T00:15:13;9.70;99.90
7814;DHT22;3952;48.364;16.022;2024-01-25T00:17:41;9.70;99.90
7814;DHT22;3952;48.364;16.022;2024-01-25T00:20:10;9.70;99.90
7814;DHT22;3952;48.364;16.022;2024-01-25T00:22:38;9.70;99.90
7814;DHT22;3952;48.364;16.022;2024-01-25T00:25:05;9.70;99.90
7814;DHT22;3952;48.364;16.022;2024-01-25T00:27:33;9.70;99.90
7814;DHT22;3952;48.364;16.022;2024-01-25T00:30:02;9.70;99.90
7814;DHT22;3952;48.364;16.022;2024-01-25T00:32:30;9.60;99.90
7814;DHT22;3952;48.364;16.022;2024-01-25T00:34:58;9.60;99.90
7814;DHT22;3952;48.364;16.022;2024-01-25T00:37:26;9.60;99.90
7814;DHT22;3952;48.364;16.022;2024-01-25T00:39:54;9.50;99.90
7814;DHT22;3952;48.364;16.022;2024-01-25T00:42:22;9.50;99.90
7814;DHT22;3952;48.364;16.022;2024-01-25T00:44:50;9.50;99.90
7814;DHT22;3952;48.364;16.022;2024-01-25T00:47:21;9.50;99.90
7814;DHT22;3952;48.364;16.022;2024-01-25T00:49:49;9.50;99.90
7814;DHT22;3952;48.364;16.022;2024-01-25T00:52:17;9.40;99.90
7814;DHT22;3952;48.364;16.022;2024-01-25T00:54:45;9.40;99.90
7814;DHT22;3952;48.364;16.022;2024-01-25T00:57:12;9.40;99.90
7814;DHT22;3952;48.364;16.022;2024-01-25T00:59:40;9.40;99.90
7814;DHT22;3952;48.364;16.022;2024-01-25T01:02:11;9.40;99.90
7814;DHT22;3952;48.364;16.022;2024-01-25T01:04:41;9.40;99.90
7814;DHT22;3952;48.364;16.022;2024-01-25T01:07:10;9.40;99.90
7814;DHT22;3952;48.364;16.022;2024-01-25T01:09:37;9.40;99.90
7814;DHT22;3952;48.364;16.022;2024-01-25T01:12:05;9.40;99.90
7814;DHT22;3952;48.364;16.022;2024-01-25T01:14:33;9.30;99.90
7814;DHT22;3952;48.364;16.022;2024-01-25T01:17:00;9.40;99.90
7814;DHT22;3952;48.364;16.022;2024-01-25T01:19:27;9.40;99.90
7814;DHT22;3952;48.364;16.022;2024-01-25T01:21:56;9.30;99.90
7814;DHT22;3952;48.364;16.022;2024-01-25T01:24:23;9.30;99.90
7814;DHT22;3952;48.364;16.022;2024-01-25T01:26:51;9.30;99.90
7814;DHT22;3952;48.364;16.022;2024-01-25T01:29:18;9.30;99.90
7814;DHT22;3952;48.364;16.022;2024-01-25T01:31:46;9.30;99.90
7814;DHT22;3952;48.364;16.022;2024-01-25T01:34:13;9.30;99.90
7814;DHT22;3952;48.364;16.022;2024-01-25T01:36:40;9.30;99.90
7814;DHT22;3952;48.364;16.022;2024-01-25T01:39:09;9.40;99.90
7814;DHT22;3952;48.364;16.022;2024-01-25T01:41:36;9.40;99.90
7814;DHT22;3952;48.364;16.022;2024-01-25T01:44:04;9.30;99.90
7814;DHT22;3952;48.364;16.022;2024-01-25T01:46:33;9.30;99.90
7814;DHT22;3952;48.364;16.022;2024-01-25T01:49:03;9.30;99.90
7814;DHT22;3952;48.364;16.022;2024-01-25T01:51:32;9.20;99.90
7814;DHT22;3952;48.364;16.022;2024-01-25T01:54:02;9.20;99.90
7814;DHT22;3952;48.364;16.022;2024-01-25T01:56:31;9.20;99.90
7814;DHT22;3952;48.364;16.022;2024-01-25T01:59:00;9.20;99.90
7814;DHT22;3952;48.364;16.022;2024-01-25T02:01:27;9.30;99.90
7814;DHT22;3952;48.364;16.022;2024-01-25T02:03:55;8.80;99.90
7814;DHT22;3952;48.364;16.022;2024-01-25T02:06:23;9.20;99.90
7814;DHT22;3952;48.364;16.022;2024-01-25T02:08:51;9.20;99.90
7814;DHT22;3952;48.364;16.022;2024-01-25T02:11:19;9.10;99.90
7814;DHT22;3952;48.364;16.022;2024-01-25T02:13:48;9.10;99.90
7814;DHT22;3952;48.364;16.022;2024-01-25T02:16:15;9.10;99.90
7814;DHT22;3952;48.364;16.022;2024-01-25T02:18:43;9.10;99.90
7814;DHT22;3952;48.364;16.022;2024-01-25T02:21:10;9.10;99.90
7814;DHT22;3952;48.364;16.022;2024-01-25T02:23:39;9.10;99.90
7814;DHT22;3952;48.364;16.022;2024-01-25T02:26:06;9.10;99.90
7814;DHT22;3952;48.364;16.022;2024-01-25T02:28:34;9.00;99.90
7814;DHT22;3952;48.364;16.022;2024-01-25T02:31:02;9.00;99.90
7814;DHT22;3952;48.364;16.022;2024-01-25T02:33:29;9.00;99.90
7814;DHT22;3952;48.364;16.022;2024-01-25T02:35:57;9.00;99.90
7814;DHT22;3952;48.364;16.022;2024-01-25T02:38:24;9.00;99.90
7814;DHT22;3952;48.364;16.022;2024-01-25T02:40:53;9.00;99.90
7814;DHT22;3952;48.364;16.022;2024-01-25T02:43:20;8.90;99.90
7814;DHT22;3952;48.364;16.022;2024-01-25T02:45:48;8.90;99.90
7814;DHT22;3952;48.364;16.022;2024-01-25T02:48:16;8.90;99.90
7814;DHT22;3952;48.364;16.022;2024-01-25T02:50:43;8.90;99.90
7814;DHT22;3952;48.364;16.022;2024-01-25T02:53:11;9.00;99.90
7814;DHT22;3952;48.364;16.022;2024-01-25T02:55:38;9.00;99.90
7814;DHT22;3952;48.364;16.022;2024-01-25T02:58:07;9.00;99.90
7814;DHT22;3952;48.364;16.022;2024-01-25T03:00:34;9.00;99.90
7814;DHT22;3952;48.364;16.022;2024-01-25T03:03:01;9.10;99.90
7814;DHT22;3952;48.364;16.022;2024-01-25T03:05:28;9.00;99.90
7814;DHT22;3952;48.364;16.022;2024-01-25T03:07:56;9.00;99.90
7814;DHT22;3952;48.364;16.022;2024-01-25T03:10:23;8.90;99.90
7814;DHT22;3952;48.364;16.022;2024-01-25T03:12:51;8.90;99.90
7814;DHT22;3952;48.364;16.022;2024-01-25T03:15:19;8.90;99.90
7814;DHT22;3952;48.364;16.022;2024-01-25T03:17:47;8.90;99.90
7814;DHT22;3952;48.364;16.022;2024-01-25T03:20:14;8.90;99.90
7814;DHT22;3952;48.364;16.022;2024-01-25T03:22:42;8.80;99.90
7814;DHT22;3952;48.364;16.022;2024-01-25T03:25:10;8.90;99.90
7814;DHT22;3952;48.364;16.022;2024-01-25T03:27:37;8.90;99.90
7814;DHT22;3952;48.364;16.022;2024-01-25T03:30:06;8.90;99.90
7814;DHT22;3952;48.364;16.022;2024-01-25T03:32:35;8.80;99.90
7814;DHT22;3952;48.364;16.022;2024-01-25T03:35:02;8.90;99.90
7814;DHT22;3952;48.364;16.022;2024-01-25T03:37:30;8.90;99.90
7814;DHT22;3952;48.364;16.022;2024-01-25T03:39:57;8.90;99.90
7814;DHT22;3952;48.364;16.022;2024-01-25T03:42:24;8.90;99.90
7814;DHT22;3952;48.364;16.022;2024-01-25T03:44:52;8.80;99.90
7814;DHT22;3952;48.364;16.022;2024-01-25T03:47:19;8.80;99.90
7814;DHT22;3952;48.364;16.022;2024-01-25T03:49:48;8.80;99.90
7814;DHT22;3952;48.364;16.022;2024-01-25T03:52:15;8.80;99.90
7814;DHT22;3952;48.364;16.022;2024-01-25T03:54:42;8.80;99.90
7814;DHT22;3952;48.364;16.022;2024-01-25T03:57:10;8.80;99.90
7814;DHT22;3952;48.364;16.022;2024-01-25T03:59:37;8.90;99.90
7814;DHT22;3952;48.364;16.022;2024-01-25T04:02:04;8.90;99.90
7814;DHT22;3952;48.364;16.022;2024-01-25T04:04:31;8.90;99.90
7814;DHT22;3952;48.364;16.022;2024-01-25T04:06:59;8.80;99.90
7814;DHT22;3952;48.364;16.022;2024-01-25T04:09:26;8.80;99.90
7814;DHT22;3952;48.364;16.022;2024-01-25T04:11:54;8.80;99.90
7814;DHT22;3952;48.364;16.022;2024-01-25T04:14:21;8.80;99.90
7814;DHT22;3952;48.364;16.022;2024-01-25T04:16:49;8.80;99.90
7814;DHT22;3952;48.364;16.022;2024-01-25T04:19:16;8.80;99.90
7814;DHT22;3952;48.364;16.022;2024-01-25T04:21:44;8.70;99.90
7814;DHT22;3952;48.364;16.022;2024-01-25T04:24:12;8.70;99.90
7814;DHT22;3952;48.364;16.022;2024-01-25T04:26:40;8.70;99.90
7814;DHT22;3952;48.364;16.022;2024-01-25T04:29:07;8.80;99.90
7814;DHT22;3952;48.364;16.022;2024-01-25T04:31:34;8.80;99.90
7814;DHT22;3952;48.364;16.022;2024-01-25T04:34:01;8.80;99.90
7814;DHT22;3952;48.364;16.022;2024-01-25T04:36:29;8.80;99.90
7814;DHT22;3952;48.364;16.022;2024-01-25T04:38:56;8.80;99.90
7814;DHT22;3952;48.364;16.022;2024-01-25T04:41:25;8.70;99.90
7814;DHT22;3952;48.364;16.022;2024-01-25T04:43:52;8.80;99.90
7814;DHT22;3952;48.364;16.022;2024-01-25T04:46:19;8.70;99.90
7814;DHT22;3952;48.364;16.022;2024-01-25T04:48:47;8.70;99.90
7814;DHT22;3952;48.364;16.022;2024-01-25T04:51:18;8.60;99.90
7814;DHT22;3952;48.364;16.022;2024-01-25T04:53:45;8.60;99.90
7814;DHT22;3952;48.364;16.022;2024-01-25T04:56:13;8.60;99.90
7814;DHT22;3952;48.364;16.022;2024-01-25T04:58:41;8.60;99.90
7814;DHT22;3952;48.364;16.022;2024-01-25T05:01:09;8.60;99.90
7814;DHT22;3952;48.364;16.022;2024-01-25T05:03:36;8.60;99.90
7814;DHT22;3952;48.364;16.022;2024-01-25T05:06:04;8.60;99.90
7814;DHT22;3952;48.364;16.022;2024-01-25T05:08:31;8.60;99.90
7814;DHT22;3952;48.364;16.022;2024-01-25T05:10:59;8.60;99.90
7814;DHT22;3952;48.364;16.022;2024-01-25T05:13:26;8.60;99.90
7814;DHT22;3952;48.364;16.022;2024-01-25T05:15:55;8.60;99.90
7814;DHT22;3952;48.364;16.022;2024-01-25T05:18:23;8.00;99.90
7814;DHT22;3952;48.364;16.022;2024-01-25T05:20:50;8.60;99.90
7814;DHT22;3952;48.364;16.022;2024-01-25T05:23:17;8.60;99.90
7814;DHT22;3952;48.364;16.022;2024-01-25T05:25:45;8.60;99.90
7814;DHT22;3952;48.364;16.022;2024-01-25T05:28:13;8.60;99.90
7814;DHT22;3952;48.364;16.022;2024-01-25T05:30:40;8.60;99.90
7814;DHT22;3952;48.364;16.022;2024-01-25T05:33:09;8.60;99.90
7814;DHT22;3952;48.364;16.022;2024-01-25T05:35:36;8.60;99.90
7814;DHT22;3952;48.364;16.022;2024-01-25T05:38:03;8.70;99.90
7814;DHT22;3952;48.364;16.022;2024-01-25T05:40:31;8.70;99.90
7814;DHT22;3952;48.364;16.022;2024-01-25T05:42:59;8.70;99.90
7814;DHT22;3952;48.364;16.022;2024-01-25T05:45:26;8.60;99.90
7814;DHT22;3952;48.364;16.022;2024-01-25T05:47:53;10.40;99.90
7814;DHT22;3952;48.364;16.022;2024-01-25T05:50:22;8.60;99.90
7814;DHT22;3952;48.364;16.022;2024-01-25T05:52:49;8.60;99.90
7814;DHT22;3952;48.364;16.022;2024-01-25T05:55:17;8.60;99.90
7814;DHT22;3952;48.364;16.022;2024-01-25T05:57:44;8.50;99.90
7814;DHT22;3952;48.364;16.022;2024-01-25T06:00:12;8.60;99.90
7814;DHT22;3952;48.364;16.022;2024-01-25T06:02:41;8.50;99.90
7814;DHT22;3952;48.364;16.022;2024-01-25T06:05:09;8.50;99.90
7814;DHT22;3952;48.364;16.022;2024-01-25T06:07:38;8.50;99.90
7814;DHT22;3952;48.364;16.022;2024-01-25T06:10:06;8.50;99.90
7814;DHT22;3952;48.364;16.022;2024-01-25T06:12:34;8.40;99.90
7814;DHT22;3952;48.364;16.022;2024-01-25T06:15:01;8.30;99.90
7814;DHT22;3952;48.364;16.022;2024-01-25T06:17:29;6.60;99.90
7814;DHT22;3952;48.364;16.022;2024-01-25T06:19:56;8.20;99.90
7814;DHT22;3952;48.364;16.022;2024-01-25T06:22:22;8.30;99.90
7814;DHT22;3952;48.364;16.022;2024-01-25T06:24:51;8.30;99.90
7814;DHT22;3952;48.364;16.022;2024-01-25T06:27:18;8.30;99.90
7814;DHT22;3952;48.364;16.022;2024-01-25T06:29:46;8.30;99.90
7814;DHT22;3952;48.364;16.022;2024-01-25T06:32:13;8.20;99.90
7814;DHT22;3952;48.364;16.022;2024-01-25T06:34:41;8.20;99.90
7814;DHT22;3952;48.364;16.022;2024-01-25T06:37:08;8.20;99.90
7814;DHT22;3952;48.364;16.022;2024-01-25T06:39:36;8.20;99.90
7814;DHT22;3952;48.364;16.022;2024-01-25T06:42:06;8.20;99.90
7814;DHT22;3952;48.364;16.022;2024-01-25T06:44:33;8.20;99.90
7814;DHT22;3952;48.364;16.022;2024-01-25T06:47:00;8.10;99.90
7814;DHT22;3952;48.364;16.022;2024-01-25T06:49:28;8.00;99.90
7814;DHT22;3952;48.364;16.022;2024-01-25T06:51:55;7.90;99.90
7814;DHT22;3952;48.364;16.022;2024-01-25T06:54:22;7.90;99.90
7814;DHT22;3952;48.364;16.022;2024-01-25T06:56:50;7.90;99.90
7814;DHT22;3952;48.364;16.022;2024-01-25T06:59:19;7.80;99.90
7814;DHT22;3952;48.364;16.022;2024-01-25T07:01:46;7.80;99.90
7814;DHT22;3952;48.364;16.022;2024-01-25T07:04:13;7.80;99.90
7814;DHT22;3952;48.364;16.022;2024-01-25T07:06:41;7.80;99.90
7814;DHT22;3952;48.364;16.022;2024-01-25T07:09:08;7.80;99.90
7814;DHT22;3952;48.364;16.022;2024-01-25T07:11:37;7.80;99.90
7814;DHT22;3952;48.364;16.022;2024-01-25T07:14:04;7.90;99.90
7814;DHT22;3952;48.364;16.022;2024-01-25T07:16:33;7.80;99.90
7814;DHT22;3952;48.364;16.022;2024-01-25T07:19:00;7.90;99.90
7814;DHT22;3952;48.364;16.022;2024-01-25T07:21:27;7.90;99.90
7814;DHT22;3952;48.364;16.022;2024-01-25T07:23:59;7.90;99.90
7814;DHT22;3952;48.364;16.022;2024-01-25T07:26:26;8.00;99.90
7814;DHT22;3952;48.364;16.022;2024-01-25T07:28:53;8.20;99.90
7814;DHT22;3952;48.364;16.022;2024-01-25T07:31:24;8.30;99.90
7814;DHT22;3952;48.364;16.022;2024-01-25T07:33:53;8.30;99.90
7814;DHT22;3952;48.364;16.022;2024-01-25T07:36:21;8.60;99.90
7814;DHT22;3952;48.364;16.022;2024-01-25T07:38:48;8.90;99.90
7814;DHT22;3952;48.364;16.022;2024-01-25T07:41:15;8.90;99.90
7814;DHT22;3952;48.364;16.022;2024-01-25T07:43:43;9.40;99.90
7814;DHT22;3952;48.364;16.022;2024-01-25T07:46:10;9.40;99.90
7814;DHT22;3952;48.364;16.022;2024-01-25T07:48:40;9.30;99.90
7814;DHT22;3952;48.364;16.022;2024-01-25T07:51:12;9.20;99.90
7814;DHT22;3952;48.364;16.022;2024-01-25T07:53:40;9.10;99.90
7814;DHT22;3952;48.364;16.022;2024-01-25T07:56:07;9.00;99.90
7814;DHT22;3952;48.364;16.022;2024-01-25T07:58:36;9.00;99.90
7814;DHT22;3952;48.364;16.022;2024-01-25T08:01:04;9.00;99.90
7814;DHT22;3952;48.364;16.022;2024-01-25T08:03:32;8.90;99.90
7814;DHT22;3952;48.364;16.022;2024-01-25T08:06:00;8.90;99.90
7814;DHT22;3952;48.364;16.022;2024-01-25T08:08:29;8.90;99.90
7814;DHT22;3952;48.364;16.022;2024-01-25T08:10:56;8.90;99.90
7814;DHT22;3952;48.364;16.022;2024-01-25T08:13:24;8.90;99.90
7814;DHT22;3952;48.364;16.022;2024-01-25T08:15:54;8.90;99.90
7814;DHT22;3952;48.364;16.022;2024-01-25T08:18:21;8.90;99.90
7814;DHT22;3952;48.364;16.022;2024-01-25T08:20:49;8.90;99.90
7814;DHT22;3952;48.364;16.022;2024-01-25T08:23:17;8.90;99.90
7814;DHT22;3952;48.364;16.022;2024-01-25T08:25:46;8.90;99.90
7814;DHT22;3952;48.364;16.022;2024-01-25T08:28:13;8.90;99.90
7814;DHT22;3952;48.364;16.022;2024-01-25T08:30:40;8.90;99.90
7814;DHT22;3952;48.364;16.022;2024-01-25T08:33:08;8.90;99.90
7814;DHT22;3952;48.364;16.022;2024-01-25T08:35:35;8.90;99.90
7814;DHT22;3952;48.364;16.022;2024-01-25T08:38:03;8.80;99.90
7814;DHT22;3952;48.364;16.022;2024-01-25T08:40:30;8.80;99.90
7814;DHT22;3952;48.364;16.022;2024-01-25T08:42:59;8.80;99.90
7814;DHT22;3952;48.364;16.022;2024-01-25T08:45:26;8.90;99.90
7814;DHT22;3952;48.364;16.022;2024-01-25T08:47:54;8.90;99.90
7814;DHT22;3952;48.364;16.022;2024-01-25T08:50:21;8.90;99.90
7814;DHT22;3952;48.364;16.022;2024-01-25T08:52:49;9.00;99.90
7814;DHT22;3952;48.364;16.022;2024-01-25T08:55:16;9.00;99.90
7814;DHT22;3952;48.364;16.022;2024-01-25T08:57:44;9.00;99.90
7814;DHT22;3952;48.364;16.022;2024-01-25T09:00:13;9.00;99.90
7814;DHT22;3952;48.364;16.022;2024-01-25T09:02:41;9.00;99.90
7814;DHT22;3952;48.364;16.022;2024-01-25T09:05:08;9.00;99.90
7814;DHT22;3952;48.364;16.022;2024-01-25T09:07:35;9.00;99.90
7814;DHT22;3952;48.364;16.022;2024-01-25T09:10:03;9.00;99.90
7814;DHT22;3952;48.364;16.022;2024-01-25T09:12:31;9.10;99.90
7814;DHT22;3952;48.364;16.022;2024-01-25T09:14:58;9.20;99.90
7814;DHT22;3952;48.364;16.022;2024-01-25T09:17:27;9.20;99.90
7814;DHT22;3952;48.364;16.022;2024-01-25T09:19:54;9.30;99.90
7814;DHT22;3952;48.364;16.022;2024-01-25T09:22:24;9.30;99.90
7814;DHT22;3952;48.364;16.022;2024-01-25T09:24:53;10.50;99.90
7814;DHT22;3952;48.364;16.022;2024-01-25T09:27:20;9.40;99.90
7814;DHT22;3952;48.364;16.022;2024-01-25T09:29:47;9.40;99.90
7814;DHT22;3952;48.364;16.022;2024-01-25T09:32:14;9.40;99.90
7814;DHT22;3952;48.364;16.022;2024-01-25T09:34:43;9.40;99.90
7814;DHT22;3952;48.364;16.022;2024-01-25T09:37:11;9.40;99.90
7814;DHT22;3952;48.364;16.022;2024-01-25T09:39:38;9.40;99.90
7814;DHT22;3952;48.364;16.022;2024-01-25T09:42:06;9.40;99.90
7814;DHT22;3952;48.364;16.022;2024-01-25T09:44:34;9.50;99.90
7814;DHT22;3952;48.364;16.022;2024-01-25T09:47:03;9.50;99.90
7814;DHT22;3952;48.364;16.022;2024-01-25T09:49:33;9.40;99.90
7814;DHT22;3952;48.364;16.022;2024-01-25T09:52:03;9.40;99.90
7814;DHT22;3952;48.364;16.022;2024-01-25T09:54:32;9.40;99.90
7814;DHT22;3952;48.364;16.022;2024-01-25T09:57:03;9.40;99.90
7814;DHT22;3952;48.364;16.022;2024-01-25T09:59:32;9.40;99.90
7814;DHT22;3952;48.364;16.022;2024-01-25T10:02:01;9.40;99.90
7814;DHT22;3952;48.364;16.022;2024-01-25T10:04:29;9.30;99.90
7814;DHT22;3952;48.364;16.022;2024-01-25T10:06:57;9.30;99.90
7814;DHT22;3952;48.364;16.022;2024-01-25T10:09:26;9.30;99.90
7814;DHT22;3952;48.364;16.022;2024-01-25T10:11:54;9.30;99.90
7814;DHT22;3952;48.364;16.022;2024-01-25T10:14:21;9.30;99.90
7814;DHT22;3952;48.364;16.022;2024-01-25T10:16:48;9.30;99.90
7814;DHT22;3952;48.364;16.022;2024-01-25T10:19:16;9.30;99.90
7814;DHT22;3952;48.364;16.022;2024-01-25T10:21:45;9.30;99.90
7814;DHT22;3952;48.364;16.022;2024-01-25T10:24:12;9.40;99.90
7814;DHT22;3952;48.364;16.022;2024-01-25T10:26:41;9.40;99.90
7814;DHT22;3952;48.364;16.022;2024-01-25T10:29:09;9.40;99.90
7814;DHT22;3952;48.364;16.022;2024-01-25T10:31:38;9.50;99.90
7814;DHT22;3952;48.364;16.022;2024-01-25T10:34:07;9.60;99.90
7814;DHT22;3952;48.364;16.022;2024-01-25T10:36:37;9.60;99.90
7814;DHT22;3952;48.364;16.022;2024-01-25T10:39:07;9.70;99.90
7814;DHT22;3952;48.364;16.022;2024-01-25T10:41:35;9.80;99.90
7814;DHT22;3952;48.364;16.022;2024-01-25T10:44:04;9.90;99.90
7814;DHT22;3952;48.364;16.022;2024-01-25T10:46:32;9.80;99.90
7814;DHT22;3952;48.364;16.022;2024-01-25T10:49:02;9.80;99.90
7814;DHT22;3952;48.364;16.022;2024-01-25T10:51:30;9.90;99.90
7814;DHT22;3952;48.364;16.022;2024-01-25T10:53:58;9.90;99.90
7814;DHT22;3952;48.364;16.022;2024-01-25T10:56:26;9.90;99.90
7814;DHT22;3952;48.364;16.022;2024-01-25T10:58:53;9.90;99.90
7814;DHT22;3952;48.364;16.022;2024-01-25T11:01:22;9.90;99.90
7814;DHT22;3952;48.364;16.022;2024-01-25T11:03:50;9.90;99.90
7814;DHT22;3952;48.364;16.022;2024-01-25T11:06:20;9.90;99.90
7814;DHT22;3952;48.364;16.022;2024-01-25T11:08:48;9.90;99.90
7814;DHT22;3952;48.364;16.022;2024-01-25T11:11:15;9.90;99.90
7814;DHT22;3952;48.364;16.022;2024-01-25T11:13:45;9.90;99.90
7814;DHT22;3952;48.364;16.022;2024-01-25T11:16:13;10.00;99.90
7814;DHT22;3952;48.364;16.022;2024-01-25T11:18:49;10.00;99.90
7814;DHT22;3952;48.364;16.022;2024-01-25T11:21:25;10.00;99.90
7814;DHT22;3952;48.364;16.022;2024-01-25T11:24:03;10.00;99.90
7814;DHT22;3952;48.364;16.022;2024-01-25T11:26:32;10.10;99.90
7814;DHT22;3952;48.364;16.022;2024-01-25T11:29:00;10.20;99.90
7814;DHT22;3952;48.364;16.022;2024-01-25T11:31:28;10.30;99.90
7814;DHT22;3952;48.364;16.022;2024-01-25T11:33:58;10.40;99.90
7814;DHT22;3952;48.364;16.022;2024-01-25T11:36:27;10.40;99.90
7814;DHT22;3952;48.364;16.022;2024-01-25T11:38:54;10.50;99.90
7814;DHT22;3952;48.364;16.022;2024-01-25T11:41:23;10.60;99.90
7814;DHT22;3952;48.364;16.022;2024-01-25T11:43:50;10.70;99.90
7814;DHT22;3952;48.364;16.022;2024-01-25T11:46:18;10.80;99.90
7814;DHT22;3952;48.364;16.022;2024-01-25T11:48:45;11.90;99.90
7814;DHT22;3952;48.364;16.022;2024-01-25T11:51:14;10.70;99.90
7814;DHT22;3952;48.364;16.022;2024-01-25T11:53:42;10.60;99.90
7814;DHT22;3952;48.364;16.022;2024-01-25T11:56:12;10.50;99.90
7814;DHT22;3952;48.364;16.022;2024-01-25T11:58:43;10.30;99.90
7814;DHT22;3952;48.364;16.022;2024-01-25T12:01:12;10.20;99.90
7814;DHT22;3952;48.364;16.022;2024-01-25T12:03:40;10.10;99.90
7814;DHT22;3952;48.364;16.022;2024-01-25T12:06:08;10.00;99.90
7814;DHT22;3952;48.364;16.022;2024-01-25T12:08:36;10.00;99.90
7814;DHT22;3952;48.364;16.022;2024-01-25T12:11:05;9.90;99.90
7814;DHT22;3952;48.364;16.022;2024-01-25T12:13:33;9.90;99.90
7814;DHT22;3952;48.364;16.022;2024-01-25T12:16:02;9.90;99.90
7814;DHT22;3952;48.364;16.022;2024-01-25T12:18:30;9.90;99.90
7814;DHT22;3952;48.364;16.022;2024-01-25T12:20:59;11.20;99.90
7814;DHT22;3952;48.364;16.022;2024-01-25T12:23:33;9.90;99.90
7814;DHT22;3952;48.364;16.022;2024-01-25T12:26:04;9.90;99.90
7814;DHT22;3952;48.364;16.022;2024-01-25T12:28:31;9.90;99.90
7814;DHT22;3952;48.364;16.022;2024-01-25T12:31:00;9.80;99.90
7814;DHT22;3952;48.364;16.022;2024-01-25T12:33:29;9.90;99.90
7814;DHT22;3952;48.364;16.022;2024-01-25T12:35:56;9.90;99.90
7814;DHT22;3952;48.364;16.022;2024-01-25T12:38:24;9.90;99.90
7814;DHT22;3952;48.364;16.022;2024-01-25T12:40:53;9.90;99.90
7814;DHT22;3952;48.364;16.022;2024-01-25T12:43:22;9.90;99.90
7814;DHT22;3952;48.364;16.022;2024-01-25T12:45:49;9.80;99.90
7814;DHT22;3952;48.364;16.022;2024-01-25T12:48:17;9.80;99.90
7814;DHT22;3952;48.364;16.022;2024-01-25T12:50:45;9.90;99.90
7814;DHT22;3952;48.364;16.022;2024-01-25T12:53:12;9.90;99.90
7814;DHT22;3952;48.364;16.022;2024-01-25T12:55:42;9.90;99.90
7814;DHT22;3952;48.364;16.022;2024-01-25T12:58:09;9.90;99.90
7814;DHT22;3952;48.364;16.022;2024-01-25T13:00:38;9.90;99.90
7814;DHT22;3952;48.364;16.022;2024-01-25T13:03:05;9.90;99.90
7814;DHT22;3952;48.364;16.022;2024-01-25T13:05:33;9.90;99.90
7814;DHT22;3952;48.364;16.022;2024-01-25T13:08:00;9.90;99.90
7814;DHT22;3952;48.364;16.022;2024-01-25T13:10:28;9.90;99.90
7814;DHT22;3952;48.364;16.022;2024-01-25T13:12:57;9.90;99.90
7814;DHT22;3952;48.364;16.022;2024-01-25T13:15:24;9.90;99.90
7814;DHT22;3952;48.364;16.022;2024-01-25T13:17:53;9.90;99.90
7814;DHT22;3952;48.364;16.022;2024-01-25T13:20:20;9.90;99.90
7814;DHT22;3952;48.364;16.022;2024-01-25T13:22:48;9.90;99.90
7814;DHT22;3952;48.364;16.022;2024-01-25T13:25:15;10.00;99.90
7814;DHT22;3952;48.364;16.022;2024-01-25T13:27:42;10.00;99.90
7814;DHT22;3952;48.364;16.022;2024-01-25T13:30:10;10.10;99.90
7814;DHT22;3952;48.364;16.022;2024-01-25T13:32:39;10.10;99.90
7814;DHT22;3952;48.364;16.022;2024-01-25T13:35:08;10.20;99.90
7814;DHT22;3952;48.364;16.022;2024-01-25T13:37:35;10.20;99.90
7814;DHT22;3952;48.364;16.022;2024-01-25T13:40:06;10.20;99.90
7814;DHT22;3952;48.364;16.022;2024-01-25T13:42:33;10.30;99.90
7814;DHT22;3952;48.364;16.022;2024-01-25T13:45:00;10.30;99.90
7814;DHT22;3952;48.364;16.022;2024-01-25T13:47:28;10.30;99.90
7814;DHT22;3952;48.364;16.022;2024-01-25T13:49:55;11.50;99.90
7814;DHT22;3952;48.364;16.022;2024-01-25T13:52:24;10.30;99.90
7814;DHT22;3952;48.364;16.022;2024-01-25T13:54:51;10.20;99.90
7814;DHT22;3952;48.364;16.022;2024-01-25T13:57:20;10.20;99.90
7814;DHT22;3952;48.364;16.022;2024-01-25T13:59:49;10.20;99.90
7814;DHT22;3952;48.364;16.022;2024-01-25T14:02:17;10.10;99.90
7814;DHT22;3952;48.364;16.022;2024-01-25T14:04:44;10.20;99.90
7814;DHT22;3952;48.364;16.022;2024-01-25T14:07:14;9.90;99.90
7814;DHT22;3952;48.364;16.022;2024-01-25T14:09:42;10.20;99.90
7814;DHT22;3952;48.364;16.022;2024-01-25T14:12:10;10.10;99.90
7814;DHT22;3952;48.364;16.022;2024-01-25T14:14:37;10.20;99.90
7814;DHT22;3952;48.364;16.022;2024-01-25T14:17:04;10.10;99.90
7814;DHT22;3952;48.364;16.022;2024-01-25T14:19:32;10.10;99.90
7814;DHT22;3952;48.364;16.022;2024-01-25T14:21:59;10.10;99.90
7814;DHT22;3952;48.364;16.022;2024-01-25T14:24:26;10.10;99.90
7814;DHT22;3952;48.364;16.022;2024-01-25T14:26:55;10.10;99.90
7814;DHT22;3952;48.364;16.022;2024-01-25T14:29:22;10.10;99.90
7814;DHT22;3952;48.364;16.022;2024-01-25T14:31:50;10.00;99.90
7814;DHT22;3952;48.364;16.022;2024-01-25T14:34:17;10.00;99.90
7814;DHT22;3952;48.364;16.022;2024-01-25T14:36:44;10.00;99.90
7814;DHT22;3952;48.364;16.022;2024-01-25T14:39:11;9.90;99.90
7814;DHT22;3952;48.364;16.022;2024-01-25T14:41:40;9.90;99.90
7814;DHT22;3952;48.364;16.022;2024-01-25T14:44:09;9.90;99.90
7814;DHT22;3952;48.364;16.022;2024-01-25T14:46:36;9.90;99.90
7814;DHT22;3952;48.364;16.022;2024-01-25T14:49:04;9.90;99.90
7814;DHT22;3952;48.364;16.022;2024-01-25T14:51:32;9.90;99.90
7814;DHT22;3952;48.364;16.022;2024-01-25T14:53:59;9.80;99.90
7814;DHT22;3952;48.364;16.022;2024-01-25T14:56:27;9.80;99.90
7814;DHT22;3952;48.364;16.022;2024-01-25T14:58:54;9.70;99.90
7814;DHT22;3952;48.364;16.022;2024-01-25T15:01:23;9.70;99.90
7814;DHT22;3952;48.364;16.022;2024-01-25T15:03:54;9.70;99.90
7814;DHT22;3952;48.364;16.022;2024-01-25T15:06:22;9.70;99.90
7814;DHT22;3952;48.364;16.022;2024-01-25T15:08:49;9.70;99.90
7814;DHT22;3952;48.364;16.022;2024-01-25T15:11:16;9.70;99.90
7814;DHT22;3952;48.364;16.022;2024-01-25T15:13:43;9.70;99.90
7814;DHT22;3952;48.364;16.022;2024-01-25T15:16:11;9.60;99.90
7814;DHT22;3952;48.364;16.022;2024-01-25T15:18:39;9.60;99.90
7814;DHT22;3952;48.364;16.022;2024-01-25T15:21:07;9.50;99.90
7814;DHT22;3952;48.364;16.022;2024-01-25T15:23:34;9.50;99.90
7814;DHT22;3952;48.364;16.022;2024-01-25T15:26:03;9.50;99.90
7814;DHT22;3952;48.364;16.022;2024-01-25T15:28:31;9.50;99.90
7814;DHT22;3952;48.364;16.022;2024-01-25T15:31:00;9.40;99.90
7814;DHT22;3952;48.364;16.022;2024-01-25T15:33:27;9.40;99.90
7814;DHT22;3952;48.364;16.022;2024-01-25T15:35:56;9.40;99.90
7814;DHT22;3952;48.364;16.022;2024-01-25T15:38:24;9.30;99.90
7814;DHT22;3952;48.364;16.022;2024-01-25T15:40:51;9.30;99.90
7814;DHT22;3952;48.364;16.022;2024-01-25T15:43:19;9.30;99.90
7814;DHT22;3952;48.364;16.022;2024-01-25T15:45:46;9.30;99.90
7814;DHT22;3952;48.364;16.022;2024-01-25T15:48:13;9.30;99.90
7814;DHT22;3952;48.364;16.022;2024-01-25T15:50:41;9.30;99.90
7814;DHT22;3952;48.364;16.022;2024-01-25T15:53:09;9.30;99.90
7814;DHT22;3952;48.364;16.022;2024-01-25T15:55:38;9.20;99.90
7814;DHT22;3952;48.364;16.022;2024-01-25T15:58:05;9.20;99.90
7814;DHT22;3952;48.364;16.022;2024-01-25T16:00:33;9.20;99.90
7814;DHT22;3952;48.364;16.022;2024-01-25T16:03:01;9.20;99.90